createdAt,value
2023-04-18T00:02:44.252Z,100.00
2023-04-18T00:05:50.051Z,100.00
2023-04-18T00:08:56.522Z,100.00
2023-04-18T00:12:02.689Z,100.00
2023-04-18T00:15:12.154Z,100.00
2023-04-18T00:18:17.617Z,100.00
2023-04-18T00:21:23.086Z,100.00
2023-04-18T00:24:28.742Z,100.00
2023-04-18T00:27:34.618Z,100.00
2023-04-18T00:30:40.978Z,100.00
2023-04-18T00:33:46.710Z,100.00
2023-04-18T00:36:54.720Z,100.00
2023-04-18T00:40:00.580Z,100.00
2023-04-18T00:43:08.629Z,100.00
2023-04-18T00:46:14.291Z,100.00
2023-04-18T00:49:21.475Z,100.00
2023-04-18T00:52:28.253Z,100.00
2023-04-18T00:55:35.818Z,100.00
2023-04-18T00:58:43.097Z,100.00
2023-04-18T01:01:48.860Z,100.00
2023-04-18T01:04:54.422Z,100.00
2023-04-18T01:08:01.505Z,100.00
2023-04-18T01:11:07.052Z,100.00
2023-04-18T01:14:12.937Z,100.00
2023-04-18T01:17:19.557Z,100.00
2023-04-18T01:20:26.832Z,100.00
2023-04-18T01:23:33.067Z,100.00
2023-04-18T01:26:39.265Z,100.00
2023-04-18T01:29:45.152Z,100.00
2023-04-18T01:32:50.888Z,100.00
2023-04-18T01:35:56.510Z,100.00
2023-04-18T01:39:02.225Z,100.00
2023-04-18T01:42:07.812Z,100.00
2023-04-18T01:45:13.629Z,100.00
2023-04-18T01:48:19.519Z,100.00
2023-04-18T01:51:26.763Z,100.00
2023-04-18T01:54:32.482Z,100.00
2023-04-18T01:57:38.615Z,100.00
2023-04-18T02:00:44.602Z,100.00
2023-04-18T02:03:50.295Z,100.00
2023-04-18T02:06:58.608Z,100.00
2023-04-18T02:10:04.416Z,100.00
2023-04-18T02:13:10.634Z,100.00
2023-04-18T02:16:16.654Z,100.00
2023-04-18T02:19:22.944Z,100.00
2023-04-18T02:22:28.288Z,100.00
2023-04-18T02:25:34.318Z,100.00
2023-04-18T02:28:39.971Z,100.00
2023-04-18T02:31:45.645Z,100.00
2023-04-18T02:34:53.797Z,100.00
2023-04-18T02:37:59.415Z,100.00
2023-04-18T02:41:05.225Z,100.00
2023-04-18T02:44:11.119Z,100.00
2023-04-18T02:47:18.385Z,100.00
2023-04-18T02:50:25.862Z,100.00
2023-04-18T02:53:35.525Z,100.00
2023-04-18T02:56:43.026Z,100.00
2023-04-18T03:00:09.701Z,100.00
2023-04-18T03:03:45.204Z,100.00
2023-04-18T03:07:11.372Z,100.00
2023-04-18T03:10:18.823Z,100.00
2023-04-18T03:13:25.761Z,100.00
2023-04-18T03:16:32.491Z,100.00
2023-04-18T03:19:39.151Z,100.00
2023-04-18T03:22:48.160Z,100.00
2023-04-18T03:25:58.463Z,100.00
2023-04-18T03:29:07.324Z,100.00
2023-04-18T03:32:13.063Z,100.00
2023-04-18T03:35:19.364Z,100.00
2023-04-18T03:38:25.192Z,100.00
2023-04-18T03:41:32.216Z,100.00
2023-04-18T03:44:38.152Z,100.00
2023-04-18T03:47:44.069Z,100.00
2023-04-18T03:50:50.841Z,100.00
2023-04-18T03:53:56.498Z,100.00
2023-04-18T03:57:03.477Z,100.00
2023-04-18T04:00:13.193Z,100.00
2023-04-18T04:03:21.705Z,100.00
2023-04-18T04:06:27.689Z,100.00
2023-04-18T04:09:33.220Z,100.00
2023-04-18T04:12:39.580Z,100.00
2023-04-18T04:15:45.125Z,100.00
2023-04-18T04:18:51.059Z,100.00
2023-04-18T04:22:00.601Z,100.00
2023-04-18T04:25:08.034Z,100.00
2023-04-18T04:28:18.258Z,100.00
2023-04-18T04:31:32.193Z,100.00
2023-04-18T04:34:38.247Z,100.00
2023-04-18T04:37:46.672Z,100.00
2023-04-18T04:41:01.885Z,100.00
2023-04-18T04:44:09.977Z,100.00
2023-04-18T04:47:15.904Z,100.00
2023-04-18T04:50:22.582Z,100.00
2023-04-18T04:53:32.301Z,100.00
2023-04-18T04:56:39.947Z,100.00
2023-04-18T04:59:45.951Z,100.00
2023-04-18T05:03:00.168Z,100.00
2023-04-18T05:06:06.662Z,100.00
2023-04-18T05:09:12.346Z,100.00
2023-04-18T05:12:18.148Z,100.00
2023-04-18T05:15:23.853Z,100.00
2023-04-18T05:18:29.038Z,100.00
2023-04-18T05:21:34.818Z,100.00
2023-04-18T05:24:41.570Z,100.00
2023-04-18T05:27:47.484Z,100.00
2023-04-18T05:30:53.568Z,100.00
2023-04-18T05:33:59.073Z,100.00
2023-04-18T05:37:04.974Z,100.00
2023-04-18T05:40:12.368Z,100.00
2023-04-18T05:43:20.945Z,100.00
2023-04-18T05:46:26.732Z,100.00
2023-04-18T05:49:32.918Z,100.00
2023-04-18T05:52:39.575Z,100.00
2023-04-18T05:55:46.873Z,100.00
2023-04-18T05:58:52.190Z,100.00
2023-04-18T06:01:57.859Z,100.00
2023-04-18T06:05:03.824Z,100.00
2023-04-18T06:08:09.532Z,97.66
2023-04-18T06:11:20.438Z,87.40
2023-04-18T06:14:26.350Z,87.64
2023-04-18T06:17:32.808Z,81.24
2023-04-18T06:20:38.359Z,79.28
2023-04-18T06:23:44.300Z,79.33
2023-04-18T06:26:50.065Z,82.63
2023-04-18T06:29:55.634Z,82.15
2023-04-18T06:33:01.896Z,100.00
2023-04-18T06:36:09.267Z,100.00
2023-04-18T06:39:14.731Z,100.00
2023-04-18T06:42:22.006Z,100.00
2023-04-18T06:45:27.945Z,100.00
2023-04-18T06:48:33.610Z,100.00
2023-04-18T06:51:39.319Z,100.00
2023-04-18T06:54:44.834Z,100.00
2023-04-18T06:57:50.855Z,100.00
2023-04-18T07:00:56.724Z,100.00
2023-04-18T07:04:02.790Z,100.00
2023-04-18T07:07:08.336Z,100.00
2023-04-18T07:10:13.939Z,100.00
2023-04-18T07:13:19.585Z,100.00
2023-04-18T07:16:25.282Z,100.00
2023-04-18T07:19:31.024Z,98.93
2023-04-18T07:22:37.745Z,86.80
2023-04-18T07:25:43.346Z,89.12
2023-04-18T07:28:49.978Z,86.72
2023-04-18T07:31:55.601Z,88.30
2023-04-18T07:35:01.598Z,89.41
2023-04-18T07:38:07.522Z,89.24
2023-04-18T07:41:13.470Z,85.10
2023-04-18T07:44:18.879Z,86.16
2023-04-18T07:47:24.651Z,81.85
2023-04-18T07:50:30.430Z,72.43
2023-04-18T07:53:36.964Z,75.74
2023-04-18T07:56:42.561Z,71.42
2023-04-18T07:59:48.497Z,60.31
2023-04-18T08:02:54.203Z,61.85
2023-04-18T08:05:59.880Z,58.40
2023-04-18T08:09:06.289Z,56.66
2023-04-18T08:12:11.839Z,54.25
2023-04-18T08:15:17.452Z,53.18
2023-04-18T08:18:23.371Z,53.95
2023-04-18T08:21:28.855Z,54.10
2023-04-18T08:24:34.644Z,52.10
2023-04-18T08:27:40.709Z,50.93
2023-04-18T08:30:49.372Z,50.08
2023-04-18T08:33:55.038Z,49.94
2023-04-18T08:37:01.282Z,49.92
2023-04-18T08:40:07.858Z,48.46
2023-04-18T08:43:15.237Z,48.91
2023-04-18T08:46:20.796Z,50.57
2023-04-18T08:49:26.617Z,49.52
2023-04-18T08:52:32.759Z,49.60
2023-04-18T08:55:38.468Z,48.13
2023-04-18T08:58:45.357Z,48.10
2023-04-18T09:02:01.886Z,48.37
2023-04-18T09:05:13.514Z,48.03
2023-04-18T09:08:26.476Z,47.74
2023-04-18T09:11:34.597Z,48.73
2023-04-18T09:14:46.154Z,48.84
2023-04-18T09:17:54.258Z,50.39
2023-04-18T09:21:19.646Z,48.64
2023-04-18T09:24:27.503Z,48.70
2023-04-18T09:27:36.262Z,47.29
2023-04-18T09:30:42.434Z,48.56
2023-04-18T09:33:57.105Z,48.62
2023-04-18T09:37:13.988Z,47.70
2023-04-18T09:40:20.081Z,45.86
2023-04-18T09:43:26.083Z,46.65
2023-04-18T09:46:31.920Z,45.52
2023-04-18T09:49:37.626Z,46.18
2023-04-18T09:52:44.440Z,44.46
2023-04-18T09:55:54.794Z,45.47
2023-04-18T09:59:09.600Z,43.78
2023-04-18T10:02:21.294Z,44.46
2023-04-18T10:05:32.532Z,45.58
2023-04-18T10:08:38.724Z,44.82
2023-04-18T10:11:44.903Z,43.63
2023-04-18T10:14:50.503Z,41.78
2023-04-18T10:18:05.666Z,42.20
2023-04-18T10:21:12.377Z,40.87
2023-04-18T10:24:42.375Z,39.95
2023-04-18T10:27:48.006Z,40.79
2023-04-18T10:31:04.338Z,39.92
2023-04-18T10:34:18.073Z,41.10
2023-04-18T10:37:26.986Z,40.19
2023-04-18T10:40:34.497Z,39.30
2023-04-18T10:44:10.371Z,40.07
2023-04-18T10:47:20.037Z,38.73
2023-04-18T10:50:26.129Z,40.01
2023-04-18T10:53:31.818Z,38.62
2023-04-18T10:56:37.789Z,38.71
2023-04-18T10:59:48.689Z,37.84
2023-04-18T11:02:56.736Z,39.53
2023-04-18T11:06:03.789Z,40.59
2023-04-18T11:09:13.986Z,39.80
2023-04-18T11:12:19.854Z,38.47
2023-04-18T11:15:25.765Z,40.33
2023-04-18T11:18:42.206Z,39.62
2023-04-18T11:21:47.532Z,39.39
2023-04-18T11:24:57.741Z,39.77
2023-04-18T11:28:04.990Z,39.78
2023-04-18T11:31:10.841Z,40.33
2023-04-18T11:34:16.437Z,41.04
2023-04-18T11:37:22.350Z,40.16
2023-04-18T11:40:27.928Z,40.12
2023-04-18T11:43:34.111Z,41.28
2023-04-18T11:46:39.976Z,40.17
2023-04-18T11:49:45.508Z,40.83
2023-04-18T11:52:53.164Z,40.92
2023-04-18T11:55:58.715Z,40.36
2023-04-18T11:59:10.479Z,39.66
2023-04-18T12:02:17.608Z,40.69
2023-04-18T12:05:28.271Z,42.60
2023-04-18T12:08:34.069Z,41.34
2023-04-18T12:11:41.721Z,41.29
2023-04-18T12:14:47.187Z,42.00
2023-04-18T12:17:57.418Z,41.01
2023-04-18T12:21:06.132Z,41.61
2023-04-18T12:24:16.257Z,41.29
2023-04-18T12:27:21.456Z,40.29
2023-04-18T12:30:29.849Z,39.97
2023-04-18T12:33:37.994Z,39.56
2023-04-18T12:36:43.365Z,38.83
2023-04-18T12:39:49.252Z,39.02
2023-04-18T12:42:55.613Z,39.86
2023-04-18T12:46:01.408Z,38.51
2023-04-18T12:49:07.353Z,37.40
2023-04-18T12:52:13.223Z,39.55
2023-04-18T12:55:19.350Z,38.76
2023-04-18T12:58:25.118Z,38.37
2023-04-18T13:01:31.024Z,38.27
2023-04-18T13:04:36.997Z,37.75
2023-04-18T13:07:43.580Z,36.46
2023-04-18T13:10:49.112Z,37.72
2023-04-18T13:13:55.844Z,37.37
2023-04-18T13:17:01.547Z,37.65
2023-04-18T13:20:11.137Z,37.44
2023-04-18T13:23:16.585Z,38.65
2023-04-18T13:26:21.937Z,38.08
2023-04-18T13:29:27.302Z,36.37
2023-04-18T13:32:32.846Z,36.72
2023-04-18T13:35:38.228Z,34.97
2023-04-18T13:38:44.272Z,34.59
2023-04-18T13:41:49.268Z,36.25
2023-04-18T13:44:54.627Z,34.85
2023-04-18T13:48:00.280Z,34.90
2023-04-18T13:51:07.171Z,35.31
2023-04-18T13:54:16.949Z,36.52
2023-04-18T13:57:23.423Z,37.47
2023-04-18T14:00:30.530Z,34.72
2023-04-18T14:03:37.845Z,35.56
2023-04-18T14:06:44.700Z,36.36
2023-04-18T14:09:52.034Z,36.68
2023-04-18T14:12:59.603Z,36.07
2023-04-18T14:16:06.846Z,35.32
2023-04-18T14:19:12.612Z,35.72
2023-04-18T14:22:18.724Z,38.42
2023-04-18T14:25:24.726Z,36.33
2023-04-18T14:28:30.808Z,35.89
2023-04-18T14:31:36.645Z,35.63
2023-04-18T14:34:42.939Z,35.98
2023-04-18T14:37:48.499Z,36.29
2023-04-18T14:40:55.006Z,36.33
2023-04-18T14:44:00.404Z,36.42
2023-04-18T14:47:05.806Z,36.72
2023-04-18T14:50:12.315Z,36.36
2023-04-18T14:53:17.830Z,36.63
2023-04-18T14:56:24.451Z,37.94
2023-04-18T14:59:30.396Z,38.35
2023-04-18T15:02:36.398Z,38.89
2023-04-18T15:05:46.858Z,37.73
2023-04-18T15:08:52.975Z,38.00
2023-04-18T15:12:00.254Z,38.27
2023-04-18T15:15:06.863Z,39.29
2023-04-18T15:18:14.212Z,38.65
2023-04-18T15:21:19.303Z,38.07
2023-04-18T15:24:24.705Z,38.98
2023-04-18T15:27:30.628Z,38.26
2023-04-18T15:30:36.479Z,38.74
2023-04-18T15:33:42.159Z,39.00
2023-04-18T15:36:49.405Z,39.25
2023-04-18T15:39:54.974Z,40.16
2023-04-18T15:43:01.136Z,39.10
2023-04-18T15:46:07.336Z,38.12
2023-04-18T15:49:13.211Z,39.15
2023-04-18T15:52:18.867Z,39.62
2023-04-18T15:55:24.382Z,39.36
2023-04-18T15:58:30.584Z,39.51
2023-04-18T16:01:36.312Z,39.66
2023-04-18T16:04:41.639Z,40.20
2023-04-18T16:07:47.309Z,39.24
2023-04-18T16:10:53.567Z,39.84
2023-04-18T16:13:59.077Z,40.27
2023-04-18T16:17:05.143Z,40.58
2023-04-18T16:20:10.984Z,39.77
2023-04-18T16:23:16.593Z,40.31
2023-04-18T16:26:24.028Z,40.70
2023-04-18T16:29:29.487Z,40.79
2023-04-18T16:32:34.983Z,41.45
2023-04-18T16:35:40.569Z,40.84
2023-04-18T16:38:46.389Z,41.05
2023-04-18T16:41:52.185Z,42.19
2023-04-18T16:44:57.898Z,43.73
2023-04-18T16:48:03.740Z,44.19
2023-04-18T16:51:14.047Z,44.00
2023-04-18T16:54:19.743Z,43.80
2023-04-18T16:57:25.561Z,43.13
2023-04-18T17:00:31.084Z,44.78
2023-04-18T17:03:36.865Z,43.72
2023-04-18T17:06:45.558Z,44.18
2023-04-18T17:09:50.976Z,45.11
2023-04-18T17:12:56.842Z,46.19
2023-04-18T17:16:02.738Z,44.76
2023-04-18T17:19:09.165Z,46.58
2023-04-18T17:22:14.944Z,47.31
2023-04-18T17:25:21.874Z,46.88
2023-04-18T17:28:27.420Z,46.34
2023-04-18T17:31:33.102Z,46.94
2023-04-18T17:34:38.558Z,46.79
2023-04-18T17:37:44.660Z,48.02
2023-04-18T17:40:59.072Z,48.49
2023-04-18T17:44:05.862Z,50.16
2023-04-18T17:47:11.281Z,50.16
2023-04-18T17:50:17.432Z,50.49
2023-04-18T17:53:22.813Z,51.71
2023-04-18T17:56:33.651Z,52.33
2023-04-18T17:59:39.541Z,52.29
2023-04-18T18:02:45.253Z,53.43
2023-04-18T18:05:50.774Z,53.94
2023-04-18T18:08:56.207Z,54.09
2023-04-18T18:12:01.432Z,54.56
2023-04-18T18:15:08.365Z,54.37
2023-04-18T18:18:14.038Z,54.53
2023-04-18T18:21:19.693Z,55.51
2023-04-18T18:24:27.326Z,55.69
2023-04-18T18:27:33.201Z,56.04
2023-04-18T18:30:38.606Z,57.30
2023-04-18T18:33:44.176Z,57.56
2023-04-18T18:36:50.786Z,58.11
2023-04-18T18:40:00.379Z,58.06
2023-04-18T18:43:05.975Z,57.70
2023-04-18T18:46:11.804Z,57.86
2023-04-18T18:49:17.496Z,57.67
2023-04-18T18:52:28.541Z,59.36
2023-04-18T18:55:34.260Z,60.21
2023-04-18T18:58:40.685Z,60.47
2023-04-18T19:01:46.660Z,62.38
2023-04-18T19:04:52.760Z,63.28
2023-04-18T19:07:58.213Z,62.60
2023-04-18T19:11:04.580Z,63.81
2023-04-18T19:14:09.856Z,65.73
2023-04-18T19:17:18.130Z,67.84
2023-04-18T19:20:24.134Z,66.69
2023-04-18T19:23:31.171Z,68.68
2023-04-18T19:26:36.951Z,69.02
2023-04-18T19:29:42.349Z,70.16
2023-04-18T19:32:48.136Z,69.68
2023-04-18T19:35:54.174Z,72.08
2023-04-18T19:38:59.551Z,72.60
2023-04-18T19:42:05.370Z,73.71
2023-04-18T19:45:12.390Z,75.43
2023-04-18T19:48:18.057Z,75.50
2023-04-18T19:51:23.742Z,77.71
2023-04-18T19:54:31.485Z,74.96
2023-04-18T19:57:41.654Z,79.20
2023-04-18T20:00:47.149Z,77.67
2023-04-18T20:03:54.712Z,77.53
2023-04-18T20:07:00.555Z,79.67
2023-04-18T20:10:06.891Z,85.31
2023-04-18T20:13:11.966Z,85.12
2023-04-18T20:16:17.596Z,83.28
2023-04-18T20:19:27.073Z,81.01
2023-04-18T20:22:32.941Z,81.08
2023-04-18T20:25:38.251Z,79.48
2023-04-18T20:28:43.310Z,83.45
2023-04-18T20:31:48.705Z,84.20
2023-04-18T20:34:54.043Z,83.38
2023-04-18T20:38:00.799Z,81.98
2023-04-18T20:41:06.349Z,85.71
2023-04-18T20:44:13.957Z,86.57
2023-04-18T20:47:19.309Z,86.22
2023-04-18T20:50:24.830Z,84.21
2023-04-18T20:53:31.333Z,83.08
2023-04-18T20:56:37.699Z,83.57
2023-04-18T20:59:42.825Z,83.75
2023-04-18T21:02:48.891Z,84.49
2023-04-18T21:05:54.475Z,89.33
2023-04-18T21:08:59.786Z,91.73
2023-04-18T21:12:06.170Z,93.04
2023-04-18T21:15:12.179Z,98.94
2023-04-18T21:18:19.192Z,96.24
2023-04-18T21:21:25.912Z,99.41
2023-04-18T21:24:31.402Z,96.76
2023-04-18T21:27:37.138Z,97.11
2023-04-18T21:30:42.721Z,94.90
2023-04-18T21:33:48.629Z,94.83
2023-04-18T21:36:54.176Z,95.91
2023-04-18T21:40:01.401Z,96.18
2023-04-18T21:43:06.507Z,98.16
2023-04-18T21:46:11.994Z,95.98
2023-04-18T21:49:16.976Z,100.00
2023-04-18T21:52:22.534Z,100.00
2023-04-18T21:55:28.096Z,98.88
2023-04-18T21:58:33.700Z,100.00
2023-04-18T22:01:39.407Z,100.00
2023-04-18T22:04:44.704Z,100.00
2023-04-18T22:07:57.628Z,100.00
2023-04-18T22:11:05.013Z,100.00
2023-04-18T22:14:10.989Z,100.00
2023-04-18T22:17:16.808Z,100.00
2023-04-18T22:20:22.247Z,100.00
2023-04-18T22:23:27.907Z,100.00
2023-04-18T22:26:33.401Z,100.00
2023-04-18T22:29:38.466Z,100.00
2023-04-18T22:32:43.837Z,100.00
2023-04-18T22:35:49.176Z,100.00
2023-04-18T22:38:54.984Z,100.00
2023-04-18T22:42:00.493Z,100.00
2023-04-18T22:45:07.220Z,100.00
2023-04-18T22:48:13.484Z,98.70
2023-04-18T22:51:19.068Z,100.00
2023-04-18T22:54:24.508Z,100.00
2023-04-18T22:57:30.080Z,100.00
2023-04-18T23:00:35.843Z,97.59
2023-04-18T23:03:41.696Z,97.04
2023-04-18T23:06:46.918Z,99.19
2023-04-18T23:09:52.238Z,100.00
2023-04-18T23:12:57.283Z,100.00
2023-04-18T23:16:02.504Z,100.00
2023-04-18T23:19:07.708Z,100.00
2023-04-18T23:22:13.252Z,100.00
2023-04-18T23:25:19.990Z,100.00
2023-04-18T23:28:25.158Z,100.00
2023-04-18T23:31:33.000Z,97.98
2023-04-18T23:34:38.464Z,97.75
2023-04-18T23:37:43.917Z,97.20
2023-04-18T23:40:49.400Z,99.76
2023-04-18T23:43:54.484Z,98.24
2023-04-18T23:46:59.606Z,96.36
2023-04-18T23:50:05.224Z,94.80
2023-04-18T23:53:10.549Z,96.01
2023-04-18T23:56:16.083Z,94.87
2023-04-18T23:59:21.400Z,93.37
